sensor_id;sensor_type;location;lat;lon;timestamp;P1;durP1;ratioP1;P2;durP2;ratioP2
34982;SDS011;21187;50.976;13.720;2022-11-23T00:04:52;16.42;;;6.93;;
34982;SDS011;21187;50.976;13.720;2022-11-23T00:09:54;18.75;;;7.07;;
34982;SDS011;21187;50.976;13.720;2022-11-23T00:14:56;14.93;;;6.45;;
34982;SDS011;21187;50.976;13.720;2022-11-23T00:19:58;18.30;;;7.05;;
34982;SDS011;21187;50.976;13.720;2022-11-23T00:25:00;13.77;;;5.95;;
34982;SDS011;21187;50.976;13.720;2022-11-23T00:30:02;11.38;;;5.30;;
34982;SDS011;21187;50.976;13.720;2022-11-23T00:35:05;13.10;;;5.38;;
34982;SDS011;21187;50.976;13.720;2022-11-23T00:40:07;14.18;;;6.15;;
34982;SDS011;21187;50.976;13.720;2022-11-23T00:45:10;10.68;;;4.88;;
34982;SDS011;21187;50.976;13.720;2022-11-23T00:50:12;18.05;;;6.05;;
34982;SDS011;21187;50.976;13.720;2022-11-23T00:55:16;15.50;;;6.13;;
34982;SDS011;21187;50.976;13.720;2022-11-23T01:00:18;17.23;;;6.22;;
34982;SDS011;21187;50.976;13.720;2022-11-23T01:05:20;18.33;;;6.07;;
34982;SDS011;21187;50.976;13.720;2022-11-23T01:10:22;13.20;;;5.90;;
34982;SDS011;21187;50.976;13.720;2022-11-23T01:15:25;13.27;;;5.43;;
34982;SDS011;21187;50.976;13.720;2022-11-23T01:20:27;17.70;;;5.43;;
34982;SDS011;21187;50.976;13.720;2022-11-23T01:25:29;13.32;;;5.90;;
34982;SDS011;21187;50.976;13.720;2022-11-23T01:30:32;15.25;;;5.55;;
34982;SDS011;21187;50.976;13.720;2022-11-23T01:35:34;17.98;;;5.18;;
34982;SDS011;21187;50.976;13.720;2022-11-23T01:40:40;14.77;;;5.13;;
34982;SDS011;21187;50.976;13.720;2022-11-23T01:46:04;9.32;;;4.57;;
34982;SDS011;21187;50.976;13.720;2022-11-23T01:51:10;12.23;;;5.00;;
34982;SDS011;21187;50.976;13.720;2022-11-23T01:56:17;10.52;;;4.65;;
34982;SDS011;21187;50.976;13.720;2022-11-23T02:01:21;12.20;;;4.78;;
34982;SDS011;21187;50.976;13.720;2022-11-23T02:06:23;14.13;;;5.07;;
34982;SDS011;21187;50.976;13.720;2022-11-23T02:11:25;17.85;;;4.90;;
34982;SDS011;21187;50.976;13.720;2022-11-23T02:16:27;13.13;;;4.88;;
34982;SDS011;21187;50.976;13.720;2022-11-23T02:21:29;13.07;;;4.60;;
34982;SDS011;21187;50.976;13.720;2022-11-23T02:26:32;12.13;;;4.25;;
34982;SDS011;21187;50.976;13.720;2022-11-23T02:31:37;12.90;;;4.72;;
34982;SDS011;21187;50.976;13.720;2022-11-23T02:36:40;12.25;;;4.63;;
34982;SDS011;21187;50.976;13.720;2022-11-23T02:41:50;13.10;;;5.03;;
34982;SDS011;21187;50.976;13.720;2022-11-23T02:46:54;12.57;;;4.60;;
34982;SDS011;21187;50.976;13.720;2022-11-23T02:51:56;12.98;;;4.90;;
34982;SDS011;21187;50.976;13.720;2022-11-23T02:56:59;14.85;;;5.45;;
34982;SDS011;21187;50.976;13.720;2022-11-23T03:02:02;14.85;;;6.20;;
34982;SDS011;21187;50.976;13.720;2022-11-23T03:07:05;9.63;;;4.43;;
34982;SDS011;21187;50.976;13.720;2022-11-23T03:12:07;9.25;;;4.63;;
34982;SDS011;21187;50.976;13.720;2022-11-23T03:17:10;12.90;;;5.57;;
34982;SDS011;21187;50.976;13.720;2022-11-23T03:22:14;11.20;;;4.78;;
34982;SDS011;21187;50.976;13.720;2022-11-23T03:27:16;12.20;;;5.22;;
34982;SDS011;21187;50.976;13.720;2022-11-23T03:32:20;13.85;;;4.43;;
34982;SDS011;21187;50.976;13.720;2022-11-23T03:37:26;12.45;;;5.15;;
34982;SDS011;21187;50.976;13.720;2022-11-23T03:42:28;12.88;;;4.50;;
34982;SDS011;21187;50.976;13.720;2022-11-23T03:47:30;10.52;;;4.45;;
34982;SDS011;21187;50.976;13.720;2022-11-23T03:52:32;9.38;;;4.20;;
34982;SDS011;21187;50.976;13.720;2022-11-23T03:57:34;10.68;;;4.53;;
34982;SDS011;21187;50.976;13.720;2022-11-23T04:02:38;9.15;;;3.60;;
34982;SDS011;21187;50.976;13.720;2022-11-23T04:07:45;11.20;;;4.30;;
34982;SDS011;21187;50.976;13.720;2022-11-23T04:12:51;8.18;;;4.10;;
34982;SDS011;21187;50.976;13.720;2022-11-23T04:17:54;11.05;;;4.47;;
34982;SDS011;21187;50.976;13.720;2022-11-23T04:22:57;12.40;;;4.88;;
34982;SDS011;21187;50.976;13.720;2022-11-23T04:28:00;9.48;;;4.57;;
34982;SDS011;21187;50.976;13.720;2022-11-23T04:33:03;12.60;;;5.13;;
34982;SDS011;21187;50.976;13.720;2022-11-23T04:38:06;10.95;;;4.50;;
34982;SDS011;21187;50.976;13.720;2022-11-23T04:43:09;10.80;;;4.53;;
34982;SDS011;21187;50.976;13.720;2022-11-23T04:48:12;10.77;;;4.68;;
34982;SDS011;21187;50.976;13.720;2022-11-23T04:53:16;13.13;;;4.95;;
34982;SDS011;21187;50.976;13.720;2022-11-23T04:58:20;10.82;;;4.32;;
34982;SDS011;21187;50.976;13.720;2022-11-23T05:03:28;13.60;;;4.57;;
34982;SDS011;21187;50.976;13.720;2022-11-23T05:08:33;14.07;;;5.63;;
34982;SDS011;21187;50.976;13.720;2022-11-23T05:13:51;17.70;;;6.07;;
34982;SDS011;21187;50.976;13.720;2022-11-23T05:18:53;16.60;;;6.55;;
34982;SDS011;21187;50.976;13.720;2022-11-23T05:23:55;18.48;;;6.90;;
34982;SDS011;21187;50.976;13.720;2022-11-23T05:28:57;15.05;;;6.32;;
34982;SDS011;21187;50.976;13.720;2022-11-23T05:34:00;16.50;;;5.60;;
34982;SDS011;21187;50.976;13.720;2022-11-23T05:39:11;19.48;;;7.40;;
34982;SDS011;21187;50.976;13.720;2022-11-23T05:44:13;18.02;;;6.95;;
34982;SDS011;21187;50.976;13.720;2022-11-23T05:49:16;13.68;;;5.78;;
34982;SDS011;21187;50.976;13.720;2022-11-23T05:54:18;16.20;;;6.68;;
34982;SDS011;21187;50.976;13.720;2022-11-23T05:59:30;24.70;;;8.18;;
34982;SDS011;21187;50.976;13.720;2022-11-23T06:04:35;17.85;;;7.07;;
34982;SDS011;21187;50.976;13.720;2022-11-23T06:09:41;20.83;;;7.82;;
34982;SDS011;21187;50.976;13.720;2022-11-23T06:14:45;22.20;;;7.70;;
34982;SDS011;21187;50.976;13.720;2022-11-23T06:19:50;18.98;;;7.65;;
34982;SDS011;21187;50.976;13.720;2022-11-23T06:24:52;19.55;;;7.28;;
34982;SDS011;21187;50.976;13.720;2022-11-23T06:30:14;24.10;;;7.95;;
34982;SDS011;21187;50.976;13.720;2022-11-23T06:35:17;20.80;;;8.00;;
34982;SDS011;21187;50.976;13.720;2022-11-23T06:40:20;18.95;;;7.53;;
34982;SDS011;21187;50.976;13.720;2022-11-23T06:45:23;19.15;;;7.70;;
34982;SDS011;21187;50.976;13.720;2022-11-23T06:50:29;20.92;;;7.50;;
34982;SDS011;21187;50.976;13.720;2022-11-23T06:55:32;16.98;;;6.95;;
34982;SDS011;21187;50.976;13.720;2022-11-23T07:00:34;23.23;;;7.40;;
34982;SDS011;21187;50.976;13.720;2022-11-23T07:05:37;18.85;;;7.63;;
34982;SDS011;21187;50.976;13.720;2022-11-23T07:10:40;15.32;;;6.78;;
34982;SDS011;21187;50.976;13.720;2022-11-23T07:15:44;21.27;;;7.47;;
34982;SDS011;21187;50.976;13.720;2022-11-23T07:20:45;15.50;;;6.60;;
34982;SDS011;21187;50.976;13.720;2022-11-23T07:25:47;17.73;;;6.72;;
34982;SDS011;21187;50.976;13.720;2022-11-23T07:30:49;14.27;;;6.38;;
34982;SDS011;21187;50.976;13.720;2022-11-23T07:35:54;12.80;;;6.70;;
34982;SDS011;21187;50.976;13.720;2022-11-23T07:40:56;17.52;;;6.70;;
34982;SDS011;21187;50.976;13.720;2022-11-23T07:46:18;19.63;;;8.05;;
34982;SDS011;21187;50.976;13.720;2022-11-23T07:51:20;17.92;;;7.63;;
34982;SDS011;21187;50.976;13.720;2022-11-23T07:56:22;19.77;;;7.90;;
34982;SDS011;21187;50.976;13.720;2022-11-23T08:01:24;22.40;;;7.32;;
34982;SDS011;21187;50.976;13.720;2022-11-23T08:06:26;15.95;;;6.22;;
34982;SDS011;21187;50.976;13.720;2022-11-23T08:11:28;15.18;;;5.78;;
34982;SDS011;21187;50.976;13.720;2022-11-23T08:16:30;12.23;;;5.10;;
34982;SDS011;21187;50.976;13.720;2022-11-23T08:21:31;15.50;;;6.57;;
34982;SDS011;21187;50.976;13.720;2022-11-23T08:26:33;15.60;;;6.45;;
34982;SDS011;21187;50.976;13.720;2022-11-23T08:31:36;20.73;;;6.60;;
34982;SDS011;21187;50.976;13.720;2022-11-23T08:36:37;13.25;;;5.85;;
34982;SDS011;21187;50.976;13.720;2022-11-23T08:41:40;14.23;;;6.90;;
34982;SDS011;21187;50.976;13.720;2022-11-23T08:46:42;12.55;;;5.53;;
34982;SDS011;21187;50.976;13.720;2022-11-23T08:51:43;11.68;;;5.18;;
34982;SDS011;21187;50.976;13.720;2022-11-23T08:56:50;9.00;;;4.30;;
34982;SDS011;21187;50.976;13.720;2022-11-23T09:01:52;9.40;;;3.97;;
34982;SDS011;21187;50.976;13.720;2022-11-23T09:06:54;7.75;;;4.07;;
34982;SDS011;21187;50.976;13.720;2022-11-23T09:11:56;6.93;;;3.90;;
34982;SDS011;21187;50.976;13.720;2022-11-23T09:16:59;10.85;;;4.70;;
34982;SDS011;21187;50.976;13.720;2022-11-23T09:22:02;24.75;;;10.50;;
34982;SDS011;21187;50.976;13.720;2022-11-23T09:27:04;15.35;;;7.32;;
34982;SDS011;21187;50.976;13.720;2022-11-23T09:32:05;10.85;;;5.15;;
34982;SDS011;21187;50.976;13.720;2022-11-23T09:37:07;14.32;;;5.93;;
34982;SDS011;21187;50.976;13.720;2022-11-23T09:52:53;14.93;;;6.70;;
34982;SDS011;21187;50.976;13.720;2022-11-23T09:57:55;19.58;;;6.78;;
34982;SDS011;21187;50.976;13.720;2022-11-23T10:03:03;48.08;;;8.90;;
34982;SDS011;21187;50.976;13.720;2022-11-23T10:13:26;23.25;;;9.27;;
34982;SDS011;21187;50.976;13.720;2022-11-23T10:18:36;20.52;;;8.40;;
34982;SDS011;21187;50.976;13.720;2022-11-23T10:29:24;26.38;;;10.25;;
34982;SDS011;21187;50.976;13.720;2022-11-23T10:39:43;28.35;;;9.48;;
34982;SDS011;21187;50.976;13.720;2022-11-23T10:44:45;24.90;;;9.27;;
34982;SDS011;21187;50.976;13.720;2022-11-23T10:49:56;28.80;;;9.70;;
34982;SDS011;21187;50.976;13.720;2022-11-23T10:55:00;23.00;;;8.98;;
34982;SDS011;21187;50.976;13.720;2022-11-23T11:15:37;27.73;;;11.00;;
34982;SDS011;21187;50.976;13.720;2022-11-23T11:20:48;27.08;;;10.30;;
34982;SDS011;21187;50.976;13.720;2022-11-23T11:26:04;35.10;;;12.63;;
34982;SDS011;21187;50.976;13.720;2022-11-23T11:42:03;33.33;;;11.53;;
34982;SDS011;21187;50.976;13.720;2022-11-23T11:57:32;32.20;;;10.23;;
34982;SDS011;21187;50.976;13.720;2022-11-23T12:02:51;29.27;;;11.23;;
34982;SDS011;21187;50.976;13.720;2022-11-23T12:08:04;29.88;;;11.05;;
34982;SDS011;21187;50.976;13.720;2022-11-23T12:13:12;28.95;;;10.93;;
34982;SDS011;21187;50.976;13.720;2022-11-23T12:18:24;30.70;;;12.25;;
34982;SDS011;21187;50.976;13.720;2022-11-23T12:23:53;26.98;;;10.60;;
34982;SDS011;21187;50.976;13.720;2022-11-23T12:29:04;33.92;;;11.73;;
34982;SDS011;21187;50.976;13.720;2022-11-23T12:45:21;24.08;;;10.85;;
34982;SDS011;21187;50.976;13.720;2022-11-23T12:50:44;37.53;;;12.38;;
34982;SDS011;21187;50.976;13.720;2022-11-23T12:56:24;35.55;;;12.50;;
34982;SDS011;21187;50.976;13.720;2022-11-23T13:01:50;28.65;;;11.23;;
34982;SDS011;21187;50.976;13.720;2022-11-23T13:07:09;35.30;;;12.50;;
34982;SDS011;21187;50.976;13.720;2022-11-23T13:24:26;30.90;;;12.60;;
34982;SDS011;21187;50.976;13.720;2022-11-23T13:34:50;39.95;;;13.82;;
34982;SDS011;21187;50.976;13.720;2022-11-23T13:45:15;43.40;;;14.40;;
34982;SDS011;21187;50.976;13.720;2022-11-23T13:50:21;35.13;;;13.45;;
34982;SDS011;21187;50.976;13.720;2022-11-23T13:55:33;41.92;;;15.40;;
34982;SDS011;21187;50.976;13.720;2022-11-23T14:10:50;36.72;;;14.38;;
34982;SDS011;21187;50.976;13.720;2022-11-23T14:15:53;38.25;;;15.10;;
34982;SDS011;21187;50.976;13.720;2022-11-23T14:42:32;48.13;;;16.73;;
34982;SDS011;21187;50.976;13.720;2022-11-23T14:47:41;39.97;;;14.88;;
34982;SDS011;21187;50.976;13.720;2022-11-23T14:52:43;40.15;;;15.88;;
34982;SDS011;21187;50.976;13.720;2022-11-23T14:57:45;39.50;;;13.73;;
34982;SDS011;21187;50.976;13.720;2022-11-23T15:02:48;36.33;;;13.60;;
34982;SDS011;21187;50.976;13.720;2022-11-23T15:07:55;48.88;;;16.77;;
34982;SDS011;21187;50.976;13.720;2022-11-23T15:13:00;39.97;;;14.20;;
34982;SDS011;21187;50.976;13.720;2022-11-23T15:18:02;38.38;;;15.20;;
34982;SDS011;21187;50.976;13.720;2022-11-23T15:23:04;45.30;;;14.93;;
34982;SDS011;21187;50.976;13.720;2022-11-23T15:28:11;52.08;;;17.70;;
34982;SDS011;21187;50.976;13.720;2022-11-23T15:33:18;63.10;;;24.73;;
34982;SDS011;21187;50.976;13.720;2022-11-23T15:38:21;45.47;;;16.48;;
34982;SDS011;21187;50.976;13.720;2022-11-23T15:43:24;39.78;;;14.85;;
34982;SDS011;21187;50.976;13.720;2022-11-23T15:48:33;38.63;;;14.73;;
34982;SDS011;21187;50.976;13.720;2022-11-23T15:53:46;45.50;;;14.82;;
34982;SDS011;21187;50.976;13.720;2022-11-23T15:58:51;41.78;;;14.60;;
34982;SDS011;21187;50.976;13.720;2022-11-23T16:03:57;38.80;;;16.17;;
34982;SDS011;21187;50.976;13.720;2022-11-23T16:14:54;42.50;;;15.82;;
34982;SDS011;21187;50.976;13.720;2022-11-23T16:19:58;39.70;;;15.50;;
34982;SDS011;21187;50.976;13.720;2022-11-23T16:25:06;44.58;;;16.40;;
34982;SDS011;21187;50.976;13.720;2022-11-23T16:30:23;50.80;;;19.70;;
34982;SDS011;21187;50.976;13.720;2022-11-23T16:35:26;55.75;;;17.75;;
34982;SDS011;21187;50.976;13.720;2022-11-23T16:40:28;52.25;;;18.20;;
34982;SDS011;21187;50.976;13.720;2022-11-23T16:45:31;48.88;;;17.13;;
34982;SDS011;21187;50.976;13.720;2022-11-23T16:50:33;42.20;;;16.80;;
34982;SDS011;21187;50.976;13.720;2022-11-23T16:55:35;46.55;;;15.32;;
34982;SDS011;21187;50.976;13.720;2022-11-23T17:00:44;51.80;;;18.05;;
34982;SDS011;21187;50.976;13.720;2022-11-23T17:05:46;54.60;;;20.88;;
34982;SDS011;21187;50.976;13.720;2022-11-23T17:10:48;51.00;;;18.98;;
34982;SDS011;21187;50.976;13.720;2022-11-23T17:15:51;44.88;;;15.60;;
34982;SDS011;21187;50.976;13.720;2022-11-23T17:20:53;45.70;;;16.15;;
34982;SDS011;21187;50.976;13.720;2022-11-23T17:25:56;44.78;;;15.80;;
34982;SDS011;21187;50.976;13.720;2022-11-23T17:30:59;53.63;;;19.00;;
34982;SDS011;21187;50.976;13.720;2022-11-23T17:36:02;49.97;;;20.65;;
34982;SDS011;21187;50.976;13.720;2022-11-23T17:41:04;51.45;;;19.33;;
34982;SDS011;21187;50.976;13.720;2022-11-23T17:46:14;54.47;;;19.65;;
34982;SDS011;21187;50.976;13.720;2022-11-23T17:51:21;43.97;;;17.50;;
34982;SDS011;21187;50.976;13.720;2022-11-23T17:56:24;48.13;;;16.95;;
34982;SDS011;21187;50.976;13.720;2022-11-23T18:01:26;42.03;;;15.20;;
34982;SDS011;21187;50.976;13.720;2022-11-23T18:06:29;41.03;;;15.43;;
34982;SDS011;21187;50.976;13.720;2022-11-23T18:11:31;37.40;;;13.98;;
34982;SDS011;21187;50.976;13.720;2022-11-23T18:16:33;30.98;;;11.80;;
34982;SDS011;21187;50.976;13.720;2022-11-23T18:21:35;33.50;;;11.15;;
34982;SDS011;21187;50.976;13.720;2022-11-23T18:26:37;29.92;;;10.55;;
34982;SDS011;21187;50.976;13.720;2022-11-23T18:31:39;31.95;;;10.57;;
34982;SDS011;21187;50.976;13.720;2022-11-23T18:36:41;28.92;;;11.07;;
34982;SDS011;21187;50.976;13.720;2022-11-23T18:41:43;26.40;;;11.73;;
34982;SDS011;21187;50.976;13.720;2022-11-23T18:46:45;40.83;;;14.02;;
34982;SDS011;21187;50.976;13.720;2022-11-23T18:51:47;37.92;;;13.10;;
34982;SDS011;21187;50.976;13.720;2022-11-23T18:56:48;30.85;;;12.50;;
34982;SDS011;21187;50.976;13.720;2022-11-23T19:01:50;35.65;;;12.80;;
34982;SDS011;21187;50.976;13.720;2022-11-23T19:06:52;36.17;;;14.18;;
34982;SDS011;21187;50.976;13.720;2022-11-23T19:11:54;35.60;;;13.45;;
34982;SDS011;21187;50.976;13.720;2022-11-23T19:16:56;36.13;;;13.80;;
34982;SDS011;21187;50.976;13.720;2022-11-23T19:21:59;49.63;;;18.33;;
34982;SDS011;21187;50.976;13.720;2022-11-23T19:27:00;50.78;;;21.27;;
34982;SDS011;21187;50.976;13.720;2022-11-23T19:32:02;54.80;;;21.88;;
34982;SDS011;21187;50.976;13.720;2022-11-23T19:37:04;57.55;;;18.30;;
34982;SDS011;21187;50.976;13.720;2022-11-23T19:42:06;102.65;;;34.28;;
34982;SDS011;21187;50.976;13.720;2022-11-23T19:47:09;55.22;;;19.50;;
34982;SDS011;21187;50.976;13.720;2022-11-23T19:52:17;36.70;;;13.80;;
34982;SDS011;21187;50.976;13.720;2022-11-23T19:57:19;59.35;;;20.38;;
34982;SDS011;21187;50.976;13.720;2022-11-23T20:02:22;53.70;;;18.15;;
34982;SDS011;21187;50.976;13.720;2022-11-23T20:07:25;37.58;;;14.18;;
34982;SDS011;21187;50.976;13.720;2022-11-23T20:12:27;30.25;;;13.52;;
34982;SDS011;21187;50.976;13.720;2022-11-23T20:17:29;39.75;;;13.57;;
34982;SDS011;21187;50.976;13.720;2022-11-23T20:22:31;34.20;;;12.88;;
34982;SDS011;21187;50.976;13.720;2022-11-23T20:27:33;29.58;;;11.88;;
34982;SDS011;21187;50.976;13.720;2022-11-23T20:32:34;37.10;;;11.60;;
34982;SDS011;21187;50.976;13.720;2022-11-23T20:37:36;28.25;;;11.52;;
34982;SDS011;21187;50.976;13.720;2022-11-23T20:42:38;37.90;;;14.02;;
34982;SDS011;21187;50.976;13.720;2022-11-23T20:47:40;40.20;;;16.63;;
34982;SDS011;21187;50.976;13.720;2022-11-23T20:52:42;37.45;;;14.55;;
34982;SDS011;21187;50.976;13.720;2022-11-23T20:57:44;36.58;;;14.82;;
34982;SDS011;21187;50.976;13.720;2022-11-23T21:02:49;40.53;;;15.27;;
34982;SDS011;21187;50.976;13.720;2022-11-23T21:07:52;30.95;;;14.00;;
34982;SDS011;21187;50.976;13.720;2022-11-23T21:12:54;26.75;;;12.27;;
34982;SDS011;21187;50.976;13.720;2022-11-23T21:23:16;25.65;;;10.63;;
34982;SDS011;21187;50.976;13.720;2022-11-23T21:28:18;27.00;;;9.95;;
34982;SDS011;21187;50.976;13.720;2022-11-23T21:33:20;10.90;;;4.22;;
34982;SDS011;21187;50.976;13.720;2022-11-23T21:38:24;9.95;;;3.28;;
34982;SDS011;21187;50.976;13.720;2022-11-23T21:43:31;6.22;;;3.00;;
34982;SDS011;21187;50.976;13.720;2022-11-23T21:48:33;6.47;;;3.33;;
34982;SDS011;21187;50.976;13.720;2022-11-23T21:53:36;8.50;;;3.88;;
34982;SDS011;21187;50.976;13.720;2022-11-23T21:58:47;8.25;;;3.35;;
34982;SDS011;21187;50.976;13.720;2022-11-23T22:03:51;11.43;;;3.17;;
34982;SDS011;21187;50.976;13.720;2022-11-23T22:08:57;6.13;;;3.30;;
34982;SDS011;21187;50.976;13.720;2022-11-23T22:14:06;9.60;;;3.25;;
34982;SDS011;21187;50.976;13.720;2022-11-23T22:19:10;9.80;;;4.00;;
34982;SDS011;21187;50.976;13.720;2022-11-23T22:24:14;8.15;;;3.00;;
34982;SDS011;21187;50.976;13.720;2022-11-23T22:29:18;8.23;;;2.80;;
34982;SDS011;21187;50.976;13.720;2022-11-23T22:34:20;9.40;;;3.33;;
34982;SDS011;21187;50.976;13.720;2022-11-23T22:39:22;7.18;;;2.80;;
34982;SDS011;21187;50.976;13.720;2022-11-23T22:44:24;7.55;;;2.83;;
34982;SDS011;21187;50.976;13.720;2022-11-23T22:49:26;6.63;;;2.28;;
34982;SDS011;21187;50.976;13.720;2022-11-23T22:54:28;6.78;;;2.75;;
34982;SDS011;21187;50.976;13.720;2022-11-23T22:59:29;6.13;;;2.78;;
34982;SDS011;21187;50.976;13.720;2022-11-23T23:04:31;11.55;;;3.42;;
34982;SDS011;21187;50.976;13.720;2022-11-23T23:09:34;11.90;;;3.70;;
34982;SDS011;21187;50.976;13.720;2022-11-23T23:14:35;18.77;;;6.03;;
34982;SDS011;21187;50.976;13.720;2022-11-23T23:19:37;9.35;;;4.10;;
34982;SDS011;21187;50.976;13.720;2022-11-23T23:24:39;12.35;;;4.05;;
34982;SDS011;21187;50.976;13.720;2022-11-23T23:29:41;13.07;;;4.82;;
34982;SDS011;21187;50.976;13.720;2022-11-23T23:34:43;13.88;;;4.63;;
34982;SDS011;21187;50.976;13.720;2022-11-23T23:39:45;10.52;;;3.75;;
34982;SDS011;21187;50.976;13.720;2022-11-23T23:44:47;17.50;;;6.55;;
34982;SDS011;21187;50.976;13.720;2022-11-23T23:49:48;25.13;;;9.05;;
34982;SDS011;21187;50.976;13.720;2022-11-23T23:54:50;17.98;;;6.68;;
34982;SDS011;21187;50.976;13.720;2022-11-23T23:59:52;11.75;;;5.07;;
